sensor_id;sensor_type;location;lat;lon;timestamp;P1;durP1;ratioP1;P2;durP2;ratioP2
16197;SDS011;8206;51.440;6.914;2022-07-22T00:02:00;4.28;;;3.15;;
16197;SDS011;8206;51.440;6.914;2022-07-22T00:04:27;2.63;;;1.85;;
16197;SDS011;8206;51.440;6.914;2022-07-22T00:06:53;2.13;;;2.00;;
16197;SDS011;8206;51.440;6.914;2022-07-22T00:09:20;0.77;;;0.77;;
16197;SDS011;8206;51.440;6.914;2022-07-22T00:11:47;0.60;;;0.60;;
16197;SDS011;8206;51.440;6.914;2022-07-22T00:14:15;2.25;;;1.25;;
16197;SDS011;8206;51.440;6.914;2022-07-22T00:16:42;1.40;;;1.40;;
16197;SDS011;8206;51.440;6.914;2022-07-22T00:19:09;0.93;;;0.93;;
16197;SDS011;8206;51.440;6.914;2022-07-22T00:21:36;1.58;;;1.23;;
16197;SDS011;8206;51.440;6.914;2022-07-22T00:24:03;2.40;;;1.60;;
16197;SDS011;8206;51.440;6.914;2022-07-22T00:26:30;1.02;;;1.00;;
16197;SDS011;8206;51.440;6.914;2022-07-22T00:28:58;1.00;;;1.00;;
16197;SDS011;8206;51.440;6.914;2022-07-22T00:31:26;0.77;;;0.77;;
16197;SDS011;8206;51.440;6.914;2022-07-22T00:33:55;1.05;;;1.05;;
16197;SDS011;8206;51.440;6.914;2022-07-22T00:36:22;1.63;;;1.52;;
16197;SDS011;8206;51.440;6.914;2022-07-22T00:38:49;1.98;;;1.88;;
16197;SDS011;8206;51.440;6.914;2022-07-22T00:41:16;1.80;;;1.70;;
16197;SDS011;8206;51.440;6.914;2022-07-22T00:43:53;1.95;;;1.25;;
16197;SDS011;8206;51.440;6.914;2022-07-22T00:46:23;5.03;;;3.60;;
16197;SDS011;8206;51.440;6.914;2022-07-22T00:48:51;2.67;;;2.55;;
16197;SDS011;8206;51.440;6.914;2022-07-22T00:51:19;3.20;;;2.90;;
16197;SDS011;8206;51.440;6.914;2022-07-22T00:53:46;4.78;;;4.50;;
16197;SDS011;8206;51.440;6.914;2022-07-22T00:56:14;4.95;;;4.57;;
16197;SDS011;8206;51.440;6.914;2022-07-22T00:58:41;4.15;;;3.95;;
16197;SDS011;8206;51.440;6.914;2022-07-22T01:01:09;5.45;;;4.97;;
16197;SDS011;8206;51.440;6.914;2022-07-22T01:03:36;6.88;;;5.38;;
16197;SDS011;8206;51.440;6.914;2022-07-22T01:06:04;6.63;;;5.97;;
16197;SDS011;8206;51.440;6.914;2022-07-22T01:08:32;6.03;;;5.43;;
16197;SDS011;8206;51.440;6.914;2022-07-22T01:11:05;6.38;;;4.93;;
16197;SDS011;8206;51.440;6.914;2022-07-22T01:13:33;6.00;;;5.25;;
16197;SDS011;8206;51.440;6.914;2022-07-22T01:16:00;4.68;;;4.38;;
16197;SDS011;8206;51.440;6.914;2022-07-22T01:18:27;4.20;;;3.80;;
16197;SDS011;8206;51.440;6.914;2022-07-22T01:20:55;8.98;;;7.70;;
16197;SDS011;8206;51.440;6.914;2022-07-22T01:23:21;4.90;;;3.95;;
16197;SDS011;8206;51.440;6.914;2022-07-22T01:25:49;3.10;;;2.45;;
16197;SDS011;8206;51.440;6.914;2022-07-22T01:28:16;3.30;;;3.08;;
16197;SDS011;8206;51.440;6.914;2022-07-22T01:30:42;3.65;;;3.35;;
16197;SDS011;8206;51.440;6.914;2022-07-22T01:33:09;2.00;;;1.80;;
16197;SDS011;8206;51.440;6.914;2022-07-22T01:35:36;1.55;;;1.48;;
16197;SDS011;8206;51.440;6.914;2022-07-22T01:38:06;2.45;;;2.13;;
16197;SDS011;8206;51.440;6.914;2022-07-22T01:40:33;4.43;;;2.45;;
16197;SDS011;8206;51.440;6.914;2022-07-22T01:42:59;1.85;;;1.77;;
16197;SDS011;8206;51.440;6.914;2022-07-22T01:45:26;1.33;;;1.33;;
16197;SDS011;8206;51.440;6.914;2022-07-22T01:47:53;1.63;;;1.55;;
16197;SDS011;8206;51.440;6.914;2022-07-22T01:50:20;1.02;;;1.02;;
16197;SDS011;8206;51.440;6.914;2022-07-22T01:52:47;1.02;;;0.77;;
16197;SDS011;8206;51.440;6.914;2022-07-22T01:55:15;1.00;;;1.00;;
16197;SDS011;8206;51.440;6.914;2022-07-22T01:57:42;0.77;;;0.77;;
16197;SDS011;8206;51.440;6.914;2022-07-22T02:00:10;1.33;;;1.23;;
16197;SDS011;8206;51.440;6.914;2022-07-22T02:02:37;1.08;;;1.08;;
16197;SDS011;8206;51.440;6.914;2022-07-22T02:05:04;0.80;;;0.80;;
16197;SDS011;8206;51.440;6.914;2022-07-22T02:07:32;4.18;;;1.52;;
16197;SDS011;8206;51.440;6.914;2022-07-22T02:09:59;2.88;;;2.30;;
16197;SDS011;8206;51.440;6.914;2022-07-22T02:12:27;1.35;;;1.33;;
16197;SDS011;8206;51.440;6.914;2022-07-22T02:14:54;1.60;;;1.50;;
16197;SDS011;8206;51.440;6.914;2022-07-22T02:17:21;4.85;;;2.45;;
16197;SDS011;8206;51.440;6.914;2022-07-22T02:19:48;1.48;;;1.38;;
16197;SDS011;8206;51.440;6.914;2022-07-22T02:22:15;1.27;;;1.25;;
16197;SDS011;8206;51.440;6.914;2022-07-22T02:24:42;1.25;;;1.25;;
16197;SDS011;8206;51.440;6.914;2022-07-22T02:27:08;0.93;;;0.93;;
16197;SDS011;8206;51.440;6.914;2022-07-22T02:29:37;2.25;;;2.05;;
16197;SDS011;8206;51.440;6.914;2022-07-22T02:32:04;0.95;;;0.95;;
16197;SDS011;8206;51.440;6.914;2022-07-22T02:34:31;1.75;;;1.65;;
16197;SDS011;8206;51.440;6.914;2022-07-22T02:36:58;2.15;;;2.05;;
16197;SDS011;8206;51.440;6.914;2022-07-22T02:39:25;1.02;;;1.02;;
16197;SDS011;8206;51.440;6.914;2022-07-22T02:41:52;1.50;;;1.50;;
16197;SDS011;8206;51.440;6.914;2022-07-22T02:44:19;1.75;;;1.67;;
16197;SDS011;8206;51.440;6.914;2022-07-22T02:46:47;0.68;;;0.68;;
16197;SDS011;8206;51.440;6.914;2022-07-22T02:49:14;1.10;;;1.10;;
16197;SDS011;8206;51.440;6.914;2022-07-22T02:51:41;1.42;;;1.23;;
16197;SDS011;8206;51.440;6.914;2022-07-22T02:54:07;1.75;;;1.65;;
16197;SDS011;8206;51.440;6.914;2022-07-22T02:56:34;1.38;;;1.33;;
16197;SDS011;8206;51.440;6.914;2022-07-22T02:59:01;1.70;;;1.60;;
16197;SDS011;8206;51.440;6.914;2022-07-22T03:01:28;1.60;;;1.50;;
16197;SDS011;8206;51.440;6.914;2022-07-22T03:03:56;0.63;;;0.63;;
16197;SDS011;8206;51.440;6.914;2022-07-22T03:06:23;1.45;;;1.35;;
16197;SDS011;8206;51.440;6.914;2022-07-22T03:08:50;3.83;;;1.42;;
16197;SDS011;8206;51.440;6.914;2022-07-22T03:11:17;2.00;;;1.40;;
16197;SDS011;8206;51.440;6.914;2022-07-22T03:13:44;1.13;;;1.02;;
16197;SDS011;8206;51.440;6.914;2022-07-22T03:16:10;7.60;;;1.67;;
16197;SDS011;8206;51.440;6.914;2022-07-22T03:18:37;0.73;;;0.73;;
16197;SDS011;8206;51.440;6.914;2022-07-22T03:21:05;2.35;;;2.00;;
16197;SDS011;8206;51.440;6.914;2022-07-22T03:23:32;0.95;;;0.95;;
16197;SDS011;8206;51.440;6.914;2022-07-22T03:25:59;1.73;;;1.63;;
16197;SDS011;8206;51.440;6.914;2022-07-22T03:28:26;0.75;;;0.75;;
16197;SDS011;8206;51.440;6.914;2022-07-22T03:30:53;1.58;;;1.48;;
16197;SDS011;8206;51.440;6.914;2022-07-22T03:33:20;6.75;;;1.52;;
16197;SDS011;8206;51.440;6.914;2022-07-22T03:35:46;0.82;;;0.82;;
16197;SDS011;8206;51.440;6.914;2022-07-22T03:38:15;1.17;;;1.17;;
16197;SDS011;8206;51.440;6.914;2022-07-22T03:40:41;1.77;;;1.67;;
16197;SDS011;8206;51.440;6.914;2022-07-22T03:43:08;10.23;;;1.42;;
16197;SDS011;8206;51.440;6.914;2022-07-22T03:45:35;1.13;;;1.13;;
16197;SDS011;8206;51.440;6.914;2022-07-22T03:48:02;0.70;;;0.70;;
16197;SDS011;8206;51.440;6.914;2022-07-22T03:50:30;2.78;;;1.20;;
16197;SDS011;8206;51.440;6.914;2022-07-22T03:52:56;0.98;;;0.98;;
16197;SDS011;8206;51.440;6.914;2022-07-22T03:55:25;0.70;;;0.70;;
16197;SDS011;8206;51.440;6.914;2022-07-22T03:57:51;2.83;;;1.42;;
16197;SDS011;8206;51.440;6.914;2022-07-22T04:00:18;0.70;;;0.70;;
16197;SDS011;8206;51.440;6.914;2022-07-22T04:02:45;5.07;;;1.35;;
16197;SDS011;8206;51.440;6.914;2022-07-22T04:05:12;1.15;;;1.15;;
16197;SDS011;8206;51.440;6.914;2022-07-22T04:07:39;0.80;;;0.80;;
16197;SDS011;8206;51.440;6.914;2022-07-22T04:10:06;1.02;;;1.02;;
16197;SDS011;8206;51.440;6.914;2022-07-22T04:12:36;1.95;;;1.20;;
16197;SDS011;8206;51.440;6.914;2022-07-22T04:15:04;3.05;;;1.10;;
16197;SDS011;8206;51.440;6.914;2022-07-22T04:17:32;3.10;;;1.83;;
16197;SDS011;8206;51.440;6.914;2022-07-22T04:19:59;1.95;;;1.85;;
16197;SDS011;8206;51.440;6.914;2022-07-22T04:22:26;1.08;;;1.08;;
16197;SDS011;8206;51.440;6.914;2022-07-22T04:24:53;7.47;;;1.05;;
16197;SDS011;8206;51.440;6.914;2022-07-22T04:27:20;1.88;;;0.60;;
16197;SDS011;8206;51.440;6.914;2022-07-22T04:29:48;1.13;;;1.13;;
16197;SDS011;8206;51.440;6.914;2022-07-22T04:32:15;1.27;;;1.27;;
16197;SDS011;8206;51.440;6.914;2022-07-22T04:34:42;1.00;;;1.00;;
16197;SDS011;8206;51.440;6.914;2022-07-22T04:37:08;3.17;;;1.42;;
16197;SDS011;8206;51.440;6.914;2022-07-22T04:39:35;0.85;;;0.70;;
16197;SDS011;8206;51.440;6.914;2022-07-22T04:42:02;0.88;;;0.88;;
16197;SDS011;8206;51.440;6.914;2022-07-22T04:44:29;0.88;;;0.85;;
16197;SDS011;8206;51.440;6.914;2022-07-22T04:46:57;0.60;;;0.60;;
16197;SDS011;8206;51.440;6.914;2022-07-22T04:49:24;1.23;;;1.23;;
16197;SDS011;8206;51.440;6.914;2022-07-22T04:51:52;0.60;;;0.60;;
16197;SDS011;8206;51.440;6.914;2022-07-22T04:54:18;2.80;;;1.90;;
16197;SDS011;8206;51.440;6.914;2022-07-22T04:56:45;1.63;;;1.52;;
16197;SDS011;8206;51.440;6.914;2022-07-22T04:59:12;1.00;;;1.00;;
16197;SDS011;8206;51.440;6.914;2022-07-22T05:01:39;0.95;;;0.95;;
16197;SDS011;8206;51.440;6.914;2022-07-22T05:04:07;3.83;;;2.65;;
16197;SDS011;8206;51.440;6.914;2022-07-22T05:06:34;0.73;;;0.73;;
16197;SDS011;8206;51.440;6.914;2022-07-22T05:09:01;0.38;;;0.38;;
16197;SDS011;8206;51.440;6.914;2022-07-22T05:11:28;0.68;;;0.68;;
16197;SDS011;8206;51.440;6.914;2022-07-22T05:13:55;15.52;;;2.72;;
16197;SDS011;8206;51.440;6.914;2022-07-22T05:16:22;0.63;;;0.63;;
16197;SDS011;8206;51.440;6.914;2022-07-22T05:18:48;0.60;;;0.60;;
16197;SDS011;8206;51.440;6.914;2022-07-22T05:21:17;0.60;;;0.60;;
16197;SDS011;8206;51.440;6.914;2022-07-22T05:23:43;1.45;;;1.45;;
16197;SDS011;8206;51.440;6.914;2022-07-22T05:26:10;0.65;;;0.65;;
16197;SDS011;8206;51.440;6.914;2022-07-22T05:28:37;18.63;;;2.58;;
16197;SDS011;8206;51.440;6.914;2022-07-22T05:31:04;2.42;;;1.40;;
16197;SDS011;8206;51.440;6.914;2022-07-22T05:33:31;1.45;;;1.45;;
16197;SDS011;8206;51.440;6.914;2022-07-22T05:35:57;0.73;;;0.73;;
16197;SDS011;8206;51.440;6.914;2022-07-22T05:38:26;1.17;;;1.17;;
16197;SDS011;8206;51.440;6.914;2022-07-22T05:40:53;1.52;;;1.38;;
16197;SDS011;8206;51.440;6.914;2022-07-22T05:43:20;1.88;;;1.58;;
16197;SDS011;8206;51.440;6.914;2022-07-22T05:45:47;15.23;;;2.03;;
16197;SDS011;8206;51.440;6.914;2022-07-22T05:48:13;1.98;;;1.67;;
16197;SDS011;8206;51.440;6.914;2022-07-22T05:50:40;6.38;;;1.42;;
16197;SDS011;8206;51.440;6.914;2022-07-22T05:53:07;1.30;;;1.20;;
16197;SDS011;8206;51.440;6.914;2022-07-22T05:55:35;0.73;;;0.73;;
16197;SDS011;8206;51.440;6.914;2022-07-22T05:58:02;3.72;;;2.10;;
16197;SDS011;8206;51.440;6.914;2022-07-22T06:00:29;0.35;;;0.35;;
16197;SDS011;8206;51.440;6.914;2022-07-22T06:02:56;1.65;;;1.65;;
16197;SDS011;8206;51.440;6.914;2022-07-22T06:05:22;1.13;;;1.13;;
16197;SDS011;8206;51.440;6.914;2022-07-22T06:07:49;1.25;;;1.15;;
16197;SDS011;8206;51.440;6.914;2022-07-22T06:10:16;12.98;;;1.25;;
16197;SDS011;8206;51.440;6.914;2022-07-22T06:12:44;4.20;;;1.95;;
16197;SDS011;8206;51.440;6.914;2022-07-22T06:15:11;0.55;;;0.55;;
16197;SDS011;8206;51.440;6.914;2022-07-22T06:17:38;1.23;;;0.65;;
16197;SDS011;8206;51.440;6.914;2022-07-22T06:20:05;1.05;;;1.05;;
16197;SDS011;8206;51.440;6.914;2022-07-22T06:22:32;0.60;;;0.60;;
16197;SDS011;8206;51.440;6.914;2022-07-22T06:24:59;2.05;;;1.90;;
16197;SDS011;8206;51.440;6.914;2022-07-22T06:27:26;1.13;;;0.90;;
16197;SDS011;8206;51.440;6.914;2022-07-22T06:29:54;2.47;;;1.20;;
16197;SDS011;8206;51.440;6.914;2022-07-22T06:32:21;2.10;;;2.00;;
16197;SDS011;8206;51.440;6.914;2022-07-22T06:34:48;0.98;;;0.98;;
16197;SDS011;8206;51.440;6.914;2022-07-22T06:37:15;0.52;;;0.52;;
16197;SDS011;8206;51.440;6.914;2022-07-22T06:39:41;1.92;;;1.70;;
16197;SDS011;8206;51.440;6.914;2022-07-22T06:42:08;0.30;;;0.30;;
16197;SDS011;8206;51.440;6.914;2022-07-22T06:44:35;5.15;;;0.93;;
16197;SDS011;8206;51.440;6.914;2022-07-22T06:47:03;1.13;;;1.13;;
16197;SDS011;8206;51.440;6.914;2022-07-22T06:49:30;0.70;;;0.70;;
16197;SDS011;8206;51.440;6.914;2022-07-22T06:51:57;2.38;;;1.45;;
16197;SDS011;8206;51.440;6.914;2022-07-22T06:54:24;1.48;;;1.38;;
16197;SDS011;8206;51.440;6.914;2022-07-22T06:56:50;4.88;;;1.33;;
16197;SDS011;8206;51.440;6.914;2022-07-22T06:59:17;0.77;;;0.75;;
16197;SDS011;8206;51.440;6.914;2022-07-22T07:01:44;1.50;;;1.40;;
16197;SDS011;8206;51.440;6.914;2022-07-22T07:04:12;2.88;;;1.52;;
16197;SDS011;8206;51.440;6.914;2022-07-22T07:06:39;1.42;;;1.33;;
16197;SDS011;8206;51.440;6.914;2022-07-22T07:09:06;8.45;;;0.90;;
16197;SDS011;8206;51.440;6.914;2022-07-22T07:11:33;0.98;;;0.98;;
16197;SDS011;8206;51.440;6.914;2022-07-22T07:14:00;0.82;;;0.82;;
16197;SDS011;8206;51.440;6.914;2022-07-22T07:16:27;4.07;;;3.83;;
16197;SDS011;8206;51.440;6.914;2022-07-22T07:18:54;2.60;;;1.58;;
16197;SDS011;8206;51.440;6.914;2022-07-22T07:21:22;0.73;;;0.73;;
16197;SDS011;8206;51.440;6.914;2022-07-22T07:23:49;0.45;;;0.45;;
16197;SDS011;8206;51.440;6.914;2022-07-22T07:26:16;1.13;;;1.13;;
16197;SDS011;8206;51.440;6.914;2022-07-22T07:28:43;0.60;;;0.60;;
16197;SDS011;8206;51.440;6.914;2022-07-22T07:31:10;0.90;;;0.90;;
16197;SDS011;8206;51.440;6.914;2022-07-22T07:33:38;4.03;;;1.85;;
16197;SDS011;8206;51.440;6.914;2022-07-22T07:36:05;1.00;;;1.00;;
16197;SDS011;8206;51.440;6.914;2022-07-22T07:38:33;0.63;;;0.60;;
16197;SDS011;8206;51.440;6.914;2022-07-22T07:41:01;2.17;;;1.98;;
16197;SDS011;8206;51.440;6.914;2022-07-22T07:43:28;0.70;;;0.70;;
16197;SDS011;8206;51.440;6.914;2022-07-22T07:45:55;0.35;;;0.35;;
16197;SDS011;8206;51.440;6.914;2022-07-22T07:48:21;0.80;;;0.80;;
16197;SDS011;8206;51.440;6.914;2022-07-22T07:50:48;1.77;;;1.67;;
16197;SDS011;8206;51.440;6.914;2022-07-22T07:53:15;3.40;;;1.90;;
16197;SDS011;8206;51.440;6.914;2022-07-22T07:55:44;7.53;;;1.50;;
16197;SDS011;8206;51.440;6.914;2022-07-22T07:58:11;1.33;;;1.33;;
16197;SDS011;8206;51.440;6.914;2022-07-22T08:00:38;1.23;;;1.23;;
16197;SDS011;8206;51.440;6.914;2022-07-22T08:03:06;1.63;;;1.52;;
16197;SDS011;8206;51.440;6.914;2022-07-22T08:05:33;4.10;;;2.13;;
16197;SDS011;8206;51.440;6.914;2022-07-22T08:08:00;0.98;;;0.98;;
16197;SDS011;8206;51.440;6.914;2022-07-22T08:10:28;2.08;;;1.98;;
16197;SDS011;8206;51.440;6.914;2022-07-22T08:12:56;3.53;;;2.17;;
16197;SDS011;8206;51.440;6.914;2022-07-22T08:15:24;1.85;;;1.75;;
16197;SDS011;8206;51.440;6.914;2022-07-22T08:17:51;2.83;;;2.47;;
16197;SDS011;8206;51.440;6.914;2022-07-22T08:20:19;3.25;;;2.88;;
16197;SDS011;8206;51.440;6.914;2022-07-22T08:22:46;1.85;;;1.75;;
16197;SDS011;8206;51.440;6.914;2022-07-22T08:25:13;3.25;;;2.03;;
16197;SDS011;8206;51.440;6.914;2022-07-22T08:27:39;0.70;;;0.50;;
16197;SDS011;8206;51.440;6.914;2022-07-22T08:30:08;3.35;;;1.42;;
16197;SDS011;8206;51.440;6.914;2022-07-22T08:32:35;1.58;;;1.48;;
16197;SDS011;8206;51.440;6.914;2022-07-22T08:35:03;1.13;;;1.13;;
16197;SDS011;8206;51.440;6.914;2022-07-22T08:37:30;2.05;;;1.95;;
16197;SDS011;8206;51.440;6.914;2022-07-22T08:39:57;2.28;;;2.17;;
16197;SDS011;8206;51.440;6.914;2022-07-22T08:42:24;2.38;;;1.95;;
16197;SDS011;8206;51.440;6.914;2022-07-22T08:44:52;2.80;;;1.88;;
16197;SDS011;8206;51.440;6.914;2022-07-22T08:47:22;1.85;;;1.75;;
16197;SDS011;8206;51.440;6.914;2022-07-22T08:49:50;1.83;;;1.73;;
16197;SDS011;8206;51.440;6.914;2022-07-22T08:52:16;1.88;;;1.80;;
16197;SDS011;8206;51.440;6.914;2022-07-22T08:54:43;2.60;;;2.03;;
16197;SDS011;8206;51.440;6.914;2022-07-22T08:57:10;3.20;;;3.00;;
16197;SDS011;8206;51.440;6.914;2022-07-22T08:59:48;2.47;;;2.38;;
16197;SDS011;8206;51.440;6.914;2022-07-22T09:02:16;2.20;;;2.10;;
16197;SDS011;8206;51.440;6.914;2022-07-22T09:04:50;2.47;;;2.28;;
16197;SDS011;8206;51.440;6.914;2022-07-22T09:07:25;2.95;;;2.72;;
16197;SDS011;8206;51.440;6.914;2022-07-22T09:09:54;3.00;;;2.45;;
16197;SDS011;8206;51.440;6.914;2022-07-22T09:12:21;1.88;;;1.77;;
16197;SDS011;8206;51.440;6.914;2022-07-22T09:14:49;2.25;;;2.15;;
16197;SDS011;8206;51.440;6.914;2022-07-22T09:17:24;2.25;;;2.15;;
16197;SDS011;8206;51.440;6.914;2022-07-22T09:19:53;2.53;;;2.33;;
16197;SDS011;8206;51.440;6.914;2022-07-22T09:22:30;1.30;;;1.30;;
16197;SDS011;8206;51.440;6.914;2022-07-22T09:24:58;2.85;;;2.65;;
16197;SDS011;8206;51.440;6.914;2022-07-22T09:27:42;2.92;;;2.17;;
16197;SDS011;8206;51.440;6.914;2022-07-22T09:30:10;1.73;;;1.67;;
16197;SDS011;8206;51.440;6.914;2022-07-22T09:32:39;8.85;;;2.88;;
16197;SDS011;8206;51.440;6.914;2022-07-22T09:35:08;2.15;;;2.05;;
16197;SDS011;8206;51.440;6.914;2022-07-22T09:37:37;2.40;;;2.30;;
16197;SDS011;8206;51.440;6.914;2022-07-22T09:40:13;3.05;;;2.10;;
16197;SDS011;8206;51.440;6.914;2022-07-22T09:42:44;2.40;;;2.20;;
16197;SDS011;8206;51.440;6.914;2022-07-22T09:45:12;3.25;;;3.00;;
16197;SDS011;8206;51.440;6.914;2022-07-22T09:47:40;3.33;;;3.03;;
16197;SDS011;8206;51.440;6.914;2022-07-22T09:50:16;3.95;;;3.72;;
16197;SDS011;8206;51.440;6.914;2022-07-22T09:52:48;4.20;;;3.80;;
16197;SDS011;8206;51.440;6.914;2022-07-22T09:55:16;3.20;;;2.80;;
16197;SDS011;8206;51.440;6.914;2022-07-22T09:57:45;3.35;;;3.15;;
16197;SDS011;8206;51.440;6.914;2022-07-22T10:00:13;6.05;;;3.78;;
16197;SDS011;8206;51.440;6.914;2022-07-22T10:02:44;3.90;;;3.33;;
16197;SDS011;8206;51.440;6.914;2022-07-22T10:05:12;6.75;;;5.38;;
16197;SDS011;8206;51.440;6.914;2022-07-22T10:07:42;1.98;;;1.88;;
16197;SDS011;8206;51.440;6.914;2022-07-22T10:10:10;3.08;;;2.92;;
16197;SDS011;8206;51.440;6.914;2022-07-22T10:12:38;4.55;;;4.15;;
16197;SDS011;8206;51.440;6.914;2022-07-22T10:15:07;5.78;;;5.18;;
16197;SDS011;8206;51.440;6.914;2022-07-22T10:17:35;3.88;;;3.58;;
16197;SDS011;8206;51.440;6.914;2022-07-22T10:20:03;5.28;;;4.75;;
16197;SDS011;8206;51.440;6.914;2022-07-22T10:22:45;4.88;;;4.43;;
16197;SDS011;8206;51.440;6.914;2022-07-22T10:25:14;3.42;;;3.00;;
16197;SDS011;8206;51.440;6.914;2022-07-22T10:27:44;4.28;;;3.97;;
16197;SDS011;8206;51.440;6.914;2022-07-22T10:30:12;3.72;;;3.53;;
16197;SDS011;8206;51.440;6.914;2022-07-22T10:32:41;8.00;;;4.05;;
16197;SDS011;8206;51.440;6.914;2022-07-22T10:35:24;4.20;;;3.90;;
16197;SDS011;8206;51.440;6.914;2022-07-22T10:37:54;3.03;;;2.83;;
16197;SDS011;8206;51.440;6.914;2022-07-22T10:40:23;7.65;;;3.45;;
16197;SDS011;8206;51.440;6.914;2022-07-22T10:43:03;5.65;;;5.25;;
16197;SDS011;8206;51.440;6.914;2022-07-22T10:45:38;3.15;;;2.88;;
16197;SDS011;8206;51.440;6.914;2022-07-22T10:48:09;5.07;;;4.60;;
16197;SDS011;8206;51.440;6.914;2022-07-22T10:50:40;3.90;;;3.65;;
16197;SDS011;8206;51.440;6.914;2022-07-22T10:53:11;2.85;;;2.65;;
16197;SDS011;8206;51.440;6.914;2022-07-22T10:55:39;2.97;;;2.80;;
16197;SDS011;8206;51.440;6.914;2022-07-22T10:58:40;4.03;;;3.63;;
16197;SDS011;8206;51.440;6.914;2022-07-22T11:01:24;3.78;;;3.53;;
16197;SDS011;8206;51.440;6.914;2022-07-22T11:03:54;4.15;;;3.53;;
16197;SDS011;8206;51.440;6.914;2022-07-22T11:06:24;2.45;;;2.33;;
16197;SDS011;8206;51.440;6.914;2022-07-22T11:08:55;2.38;;;2.28;;
16197;SDS011;8206;51.440;6.914;2022-07-22T11:11:33;4.15;;;3.78;;
16197;SDS011;8206;51.440;6.914;2022-07-22T11:14:03;9.25;;;4.03;;
16197;SDS011;8206;51.440;6.914;2022-07-22T11:16:36;8.10;;;5.00;;
16197;SDS011;8206;51.440;6.914;2022-07-22T11:19:04;4.85;;;4.43;;
16197;SDS011;8206;51.440;6.914;2022-07-22T11:21:32;3.15;;;2.95;;
16197;SDS011;8206;51.440;6.914;2022-07-22T11:24:02;6.00;;;3.90;;
16197;SDS011;8206;51.440;6.914;2022-07-22T11:26:35;6.93;;;3.22;;
16197;SDS011;8206;51.440;6.914;2022-07-22T11:29:05;4.38;;;4.00;;
16197;SDS011;8206;51.440;6.914;2022-07-22T11:31:32;4.38;;;3.92;;
16197;SDS011;8206;51.440;6.914;2022-07-22T11:34:06;2.80;;;2.60;;
16197;SDS011;8206;51.440;6.914;2022-07-22T11:36:34;2.00;;;1.90;;
16197;SDS011;8206;51.440;6.914;2022-07-22T11:39:04;4.70;;;3.60;;
16197;SDS011;8206;51.440;6.914;2022-07-22T11:41:31;3.67;;;3.45;;
16197;SDS011;8206;51.440;6.914;2022-07-22T11:43:59;2.33;;;2.20;;
16197;SDS011;8206;51.440;6.914;2022-07-22T11:46:26;1.48;;;1.45;;
16197;SDS011;8206;51.440;6.914;2022-07-22T11:48:53;2.85;;;2.65;;
16197;SDS011;8206;51.440;6.914;2022-07-22T11:51:23;6.72;;;2.97;;
16197;SDS011;8206;51.440;6.914;2022-07-22T11:53:54;5.30;;;3.65;;
16197;SDS011;8206;51.440;6.914;2022-07-22T11:56:22;2.50;;;2.40;;
16197;SDS011;8206;51.440;6.914;2022-07-22T11:58:50;6.28;;;2.83;;
16197;SDS011;8206;51.440;6.914;2022-07-22T12:01:19;5.30;;;3.65;;
16197;SDS011;8206;51.440;6.914;2022-07-22T12:03:48;1.67;;;1.05;;
16197;SDS011;8206;51.440;6.914;2022-07-22T12:06:16;3.28;;;2.97;;
16197;SDS011;8206;51.440;6.914;2022-07-22T12:08:45;5.88;;;3.60;;
16197;SDS011;8206;51.440;6.914;2022-07-22T12:11:14;2.55;;;2.45;;
16197;SDS011;8206;51.440;6.914;2022-07-22T12:13:44;2.85;;;2.65;;
16197;SDS011;8206;51.440;6.914;2022-07-22T12:16:16;8.70;;;3.28;;
16197;SDS011;8206;51.440;6.914;2022-07-22T12:18:49;2.80;;;2.70;;
16197;SDS011;8206;51.440;6.914;2022-07-22T12:21:18;2.08;;;1.92;;
16197;SDS011;8206;51.440;6.914;2022-07-22T12:23:49;3.22;;;2.97;;
16197;SDS011;8206;51.440;6.914;2022-07-22T12:26:17;2.45;;;2.35;;
16197;SDS011;8206;51.440;6.914;2022-07-22T12:28:45;2.47;;;2.38;;
16197;SDS011;8206;51.440;6.914;2022-07-22T12:31:12;2.42;;;2.33;;
16197;SDS011;8206;51.440;6.914;2022-07-22T12:33:46;6.85;;;2.88;;
16197;SDS011;8206;51.440;6.914;2022-07-22T12:36:14;4.28;;;2.72;;
16197;SDS011;8206;51.440;6.914;2022-07-22T12:38:41;3.97;;;3.42;;
16197;SDS011;8206;51.440;6.914;2022-07-22T12:41:20;2.13;;;1.95;;
16197;SDS011;8206;51.440;6.914;2022-07-22T12:43:49;3.65;;;2.63;;
16197;SDS011;8206;51.440;6.914;2022-07-22T12:46:16;3.20;;;2.00;;
16197;SDS011;8206;51.440;6.914;2022-07-22T12:48:48;2.15;;;1.52;;
16197;SDS011;8206;51.440;6.914;2022-07-22T12:51:16;4.60;;;3.40;;
16197;SDS011;8206;51.440;6.914;2022-07-22T12:53:43;2.13;;;1.92;;
16197;SDS011;8206;51.440;6.914;2022-07-22T12:56:09;1.83;;;1.70;;
16197;SDS011;8206;51.440;6.914;2022-07-22T12:58:37;4.78;;;2.17;;
16197;SDS011;8206;51.440;6.914;2022-07-22T13:01:07;13.80;;;2.78;;
16197;SDS011;8206;51.440;6.914;2022-07-22T13:03:34;4.00;;;2.58;;
16197;SDS011;8206;51.440;6.914;2022-07-22T13:06:02;3.75;;;3.45;;
16197;SDS011;8206;51.440;6.914;2022-07-22T13:08:30;4.28;;;2.95;;
16197;SDS011;8206;51.440;6.914;2022-07-22T13:10:57;3.78;;;2.88;;
16197;SDS011;8206;51.440;6.914;2022-07-22T13:13:24;3.85;;;3.53;;
16197;SDS011;8206;51.440;6.914;2022-07-22T13:15:51;3.45;;;2.72;;
16197;SDS011;8206;51.440;6.914;2022-07-22T13:18:20;6.15;;;2.97;;
16197;SDS011;8206;51.440;6.914;2022-07-22T13:20:46;2.25;;;2.15;;
16197;SDS011;8206;51.440;6.914;2022-07-22T13:23:13;3.10;;;2.90;;
16197;SDS011;8206;51.440;6.914;2022-07-22T13:25:40;2.60;;;2.40;;
16197;SDS011;8206;51.440;6.914;2022-07-22T13:28:07;3.47;;;3.28;;
16197;SDS011;8206;51.440;6.914;2022-07-22T13:30:35;3.72;;;3.42;;
16197;SDS011;8206;51.440;6.914;2022-07-22T13:33:02;3.45;;;3.20;;
16197;SDS011;8206;51.440;6.914;2022-07-22T13:35:30;3.63;;;3.38;;
16197;SDS011;8206;51.440;6.914;2022-07-22T13:37:57;9.82;;;2.10;;
16197;SDS011;8206;51.440;6.914;2022-07-22T13:40:24;6.35;;;4.00;;
16197;SDS011;8206;51.440;6.914;2022-07-22T13:42:51;4.20;;;3.35;;
16197;SDS011;8206;51.440;6.914;2022-07-22T13:45:18;9.27;;;3.33;;
16197;SDS011;8206;51.440;6.914;2022-07-22T13:47:45;3.45;;;3.25;;
16197;SDS011;8206;51.440;6.914;2022-07-22T13:50:12;2.70;;;2.50;;
16197;SDS011;8206;51.440;6.914;2022-07-22T13:52:40;6.15;;;3.67;;
16197;SDS011;8206;51.440;6.914;2022-07-22T13:55:07;11.38;;;3.40;;
16197;SDS011;8206;51.440;6.914;2022-07-22T13:57:35;3.13;;;2.95;;
16197;SDS011;8206;51.440;6.914;2022-07-22T14:00:02;2.97;;;2.78;;
16197;SDS011;8206;51.440;6.914;2022-07-22T14:02:30;3.38;;;3.08;;
16197;SDS011;8206;51.440;6.914;2022-07-22T14:04:57;3.47;;;3.28;;
16197;SDS011;8206;51.440;6.914;2022-07-22T14:07:24;3.00;;;2.80;;
16197;SDS011;8206;51.440;6.914;2022-07-22T14:09:52;2.63;;;2.47;;
16197;SDS011;8206;51.440;6.914;2022-07-22T14:12:19;2.88;;;2.78;;
16197;SDS011;8206;51.440;6.914;2022-07-22T14:14:46;2.97;;;2.53;;
16197;SDS011;8206;51.440;6.914;2022-07-22T14:17:13;2.92;;;2.70;;
16197;SDS011;8206;51.440;6.914;2022-07-22T14:19:39;2.58;;;2.47;;
16197;SDS011;8206;51.440;6.914;2022-07-22T14:22:06;2.92;;;2.67;;
16197;SDS011;8206;51.440;6.914;2022-07-22T14:24:33;2.00;;;1.70;;
16197;SDS011;8206;51.440;6.914;2022-07-22T14:27:01;3.38;;;3.15;;
16197;SDS011;8206;51.440;6.914;2022-07-22T14:29:28;1.55;;;1.55;;
16197;SDS011;8206;51.440;6.914;2022-07-22T14:31:55;2.28;;;2.17;;
16197;SDS011;8206;51.440;6.914;2022-07-22T14:34:22;3.03;;;2.30;;
16197;SDS011;8206;51.440;6.914;2022-07-22T14:36:49;1.13;;;1.13;;
16197;SDS011;8206;51.440;6.914;2022-07-22T14:39:15;1.95;;;1.85;;
16197;SDS011;8206;51.440;6.914;2022-07-22T14:41:43;2.20;;;2.10;;
16197;SDS011;8206;51.440;6.914;2022-07-22T14:44:12;9.07;;;2.03;;
16197;SDS011;8206;51.440;6.914;2022-07-22T14:46:40;1.63;;;1.63;;
16197;SDS011;8206;51.440;6.914;2022-07-22T14:49:06;1.48;;;1.48;;
16197;SDS011;8206;51.440;6.914;2022-07-22T14:51:33;1.35;;;1.30;;
16197;SDS011;8206;51.440;6.914;2022-07-22T14:54:00;3.92;;;2.85;;
16197;SDS011;8206;51.440;6.914;2022-07-22T14:56:27;5.05;;;2.15;;
16197;SDS011;8206;51.440;6.914;2022-07-22T14:58:54;1.67;;;1.58;;
16197;SDS011;8206;51.440;6.914;2022-07-22T15:01:22;1.35;;;1.35;;
16197;SDS011;8206;51.440;6.914;2022-07-22T15:03:49;1.40;;;1.38;;
16197;SDS011;8206;51.440;6.914;2022-07-22T15:06:15;1.25;;;1.25;;